Eureka の空港の天気 - METARとTAF

Eureka ( CWEU / ) - カナダ ヌナブト準州Eureka
飛行場実況気象(Metar)
観測時間02/17 17:00 CST (02/17 23:00 UTC)
風向・風速静穏 0m/s
視程10km以上
天気現象細氷
なし
気温-40℃
湿度65%
気圧1032.5hPa
METARCWEU 172300Z 00000KT 15SM IC SKC M40/M44 A3048 RMK SLP325
過去の天気等 Google飛行場航空写真 Wunderground天気予報

過去48時間のMETAR

飛行場予報(TAF)
データがありません